RJAW/IWO METAR and TAF weather

Enter ICAO airport designator
Station Type Date Time Source
RJAW METAR 2020/08/11 00:00 UTC NOAA

RJAW 110000Z 23007KT 9999 FEW015 SCT040 BKN150 28/24 Q1014 RMK 2CU015 4SC040 7AC150 A2996


Station Type Date Time Source
RJAW Decoded METAR 2020/08/11 00:00 UTC NOAA

Iwojima, Japan (RJAW) 24-47N 141-19E 116M
Aug 10, 2020 - 08:00 PM EDT / 2020.08.11 0000 UTC
Wind: from the SW (230 degrees) at 8 MPH (7 KT):0
Visibility: greater than 7 mile(s):0
Sky conditions: mostly cloudy
Temperature: 82 F (28 C)
Dew Point: 75 F (24 C)
Relative Humidity: 78%
Pressure (altimeter): 29.94 in. Hg (1014 hPa)
ob: RJAW 110000Z 23007KT 9999 FEW015 SCT040 BKN150 28/24 Q1014 RMK 2CU015 4SC040 7AC150 A2996
cycle: 0

Station Type Date Time Source
RJAW TAF UTC NOAA

Error!

Example: see airport list